Time;durP1;ratioP1;P1;durP2;ratioP2;P2;SDS_P1;SDS_P2;PMS_P1;PMS_P2;Temp;Humidity;BMP_temperature;BMP_pressure;BME280_temperature;BME280_humidity;BME280_pressure;Samples;Min_cycle;Max_cycle;Signal;HPM_P1;HPM_P2
2023/06/12 00:02:05;;;;;;;;;;;17.10;99.90;;;;;;4963280;28;19918;-72
2023/06/12 00:04:31;;;;;;;;;;;17.00;99.90;;;;;;4959671;28;20025;-73
2023/06/12 00:06:59;;;;;;;;;;;17.00;99.90;;;;;;4964652;28;20336;-72
2023/06/12 00:09:25;;;;;;;;;;;16.90;99.90;;;;;;4952080;28;20541;-72
2023/06/12 00:11:50;;;;;;;;;;;16.80;99.90;;;;;;4957888;28;19933;-72
2023/06/12 00:14:17;;;;;;;;;;;16.80;99.90;;;;;;4959060;28;20391;-72
2023/06/12 00:16:43;;;;;;;;;;;16.70;99.90;;;;;;4953223;28;20338;-73
2023/06/12 00:19:09;;;;;;;;;;;16.70;99.90;;;;;;4958623;28;20259;-72
2023/06/12 00:21:35;;;;;;;;;;;16.70;99.90;;;;;;4972092;28;19910;-72
2023/06/12 00:24:08;;;;;;;;;;;16.70;99.90;;;;;;4967418;28;19922;-72
2023/06/12 00:26:35;;;;;;;;;;;16.60;99.90;;;;;;4969787;28;19910;-72
2023/06/12 00:29:01;;;;;;;;;;;16.60;99.90;;;;;;4954483;28;19969;-72
2023/06/12 00:31:31;;;;;;;;;;;16.50;99.90;;;;;;4966680;28;19918;-72
2023/06/12 00:33:58;;;;;;;;;;;16.50;99.90;;;;;;4971893;28;19914;-72
2023/06/12 00:36:23;;;;;;;;;;;16.50;99.90;;;;;;4966856;28;20413;-72
2023/06/12 00:38:59;;;;;;;;;;;16.40;99.90;;;;;;4967149;28;19910;-72
2023/06/12 00:41:25;;;;;;;;;;;16.40;99.90;;;;;;4969197;28;19914;-71
2023/06/12 00:43:53;;;;;;;;;;;16.40;99.90;;;;;;4966675;28;20785;-72
2023/06/12 00:46:19;;;;;;;;;;;16.40;99.90;;;;;;4963282;28;19921;-72
2023/06/12 00:48:47;;;;;;;;;;;16.30;99.90;;;;;;4972210;28;20267;-72
2023/06/12 00:51:12;;;;;;;;;;;16.30;99.90;;;;;;4975905;28;19921;-72
2023/06/12 00:53:38;;;;;;;;;;;16.20;99.90;;;;;;4971494;28;19922;-72
2023/06/12 00:56:04;;;;;;;;;;;16.20;99.90;;;;;;4968994;28;19909;-72
2023/06/12 00:58:29;;;;;;;;;;;16.20;99.90;;;;;;4975599;28;20186;-72
2023/06/12 01:00:56;;;;;;;;;;;16.20;99.90;;;;;;4964415;28;19914;-72
2023/06/12 01:03:24;;;;;;;;;;;16.10;99.90;;;;;;4967514;28;19988;-72
2023/06/12 01:05:50;;;;;;;;;;;16.10;99.90;;;;;;4959795;28;19938;-72
2023/06/12 01:08:30;;;;;;;;;;;16.10;99.90;;;;;;4956206;28;19910;-72
2023/06/12 01:11:07;;;;;;;;;;;16.00;99.90;;;;;;4961455;28;19940;-72
2023/06/12 01:13:33;;;;;;;;;;;16.00;99.90;;;;;;4949455;28;19921;-71
2023/06/12 01:16:00;;;;;;;;;;;15.90;99.90;;;;;;4971046;28;19914;-71
2023/06/12 01:18:26;;;;;;;;;;;15.90;99.90;;;;;;4973431;28;19960;-71
2023/06/12 01:20:55;;;;;;;;;;;15.80;99.90;;;;;;4966698;28;19954;-72
2023/06/12 01:23:21;;;;;;;;;;;15.80;99.90;;;;;;4967076;28;19914;-72
2023/06/12 01:25:47;;;;;;;;;;;15.80;99.90;;;;;;4964997;28;19916;-72
2023/06/12 01:28:40;;;;;;;;;;;15.70;99.90;;;;;;4973170;28;19932;-71
2023/06/12 01:31:13;;;;;;;;;;;15.70;99.90;;;;;;4975110;28;19913;-72
2023/06/12 01:33:42;;;;;;;;;;;15.60;99.90;;;;;;4954968;28;19916;-71
2023/06/12 01:36:11;;;;;;;;;;;15.60;99.90;;;;;;4968322;28;19914;-71
2023/06/12 01:38:39;;;;;;;;;;;15.60;99.90;;;;;;4975046;28;20050;-72
2023/06/12 01:41:06;;;;;;;;;;;15.50;99.90;;;;;;4956459;28;20001;-71
2023/06/12 01:43:32;;;;;;;;;;;15.50;99.90;;;;;;4979828;28;20408;-71
2023/06/12 01:46:00;;;;;;;;;;;15.50;99.90;;;;;;4970706;28;19933;-72
2023/06/12 01:48:26;;;;;;;;;;;15.40;99.90;;;;;;4966818;28;19927;-72
2023/06/12 01:50:54;;;;;;;;;;;15.40;99.90;;;;;;4968544;28;19921;-71
2023/06/12 01:53:20;;;;;;;;;;;15.30;99.90;;;;;;4967053;28;19918;-72
2023/06/12 01:55:49;;;;;;;;;;;15.30;99.90;;;;;;4963327;28;20229;-71
2023/06/12 01:58:15;;;;;;;;;;;15.30;99.90;;;;;;4971767;28;19910;-72
2023/06/12 02:00:41;;;;;;;;;;;15.20;99.90;;;;;;4968645;28;19937;-72
2023/06/12 02:03:10;;;;;;;;;;;15.20;99.90;;;;;;4972056;28;19976;-71
2023/06/12 02:05:38;;;;;;;;;;;15.20;99.90;;;;;;4966670;28;20036;-71
2023/06/12 02:08:03;;;;;;;;;;;15.20;99.90;;;;;;4963505;28;20391;-72
2023/06/12 02:10:31;;;;;;;;;;;15.20;99.90;;;;;;4977651;28;20144;-71
2023/06/12 02:12:56;;;;;;;;;;;15.30;99.90;;;;;;4962108;28;19945;-71
2023/06/12 02:15:22;;;;;;;;;;;15.30;99.90;;;;;;4972309;28;19918;-72
2023/06/12 02:17:47;;;;;;;;;;;15.30;99.90;;;;;;4963846;28;19910;-72
2023/06/12 02:20:14;;;;;;;;;;;15.30;99.90;;;;;;4961531;28;19910;-71
2023/06/12 02:22:47;;;;;;;;;;;15.30;99.90;;;;;;4971215;28;19909;-71
2023/06/12 02:25:14;;;;;;;;;;;15.20;99.90;;;;;;4958982;28;19917;-71
2023/06/12 02:27:40;;;;;;;;;;;15.20;99.90;;;;;;4961652;28;19921;-72
2023/06/12 02:30:06;;;;;;;;;;;15.10;99.90;;;;;;4979233;28;20000;-72
2023/06/12 02:32:35;;;;;;;;;;;15.20;99.90;;;;;;4971437;28;20064;-72
2023/06/12 02:35:01;;;;;;;;;;;15.10;99.90;;;;;;4966769;28;19973;-72
2023/06/12 02:37:30;;;;;;;;;;;15.00;99.90;;;;;;4971229;28;19918;-72
2023/06/12 02:39:56;;;;;;;;;;;14.90;99.90;;;;;;4968074;28;20340;-72
2023/06/12 02:42:22;;;;;;;;;;;14.90;99.90;;;;;;4961635;28;19926;-71
2023/06/12 02:44:48;;;;;;;;;;;14.80;99.90;;;;;;4973411;28;19910;-72
2023/06/12 02:47:16;;;;;;;;;;;14.80;99.90;;;;;;4968953;28;19910;-72
2023/06/12 02:49:44;;;;;;;;;;;14.80;99.90;;;;;;4958365;28;19984;-72
2023/06/12 02:52:10;;;;;;;;;;;14.70;99.90;;;;;;4964213;28;19937;-71
2023/06/12 02:54:39;;;;;;;;;;;14.70;99.90;;;;;;4970079;28;19925;-72
2023/06/12 02:57:07;;;;;;;;;;;14.70;99.90;;;;;;4968572;28;19950;-71
2023/06/12 02:59:33;;;;;;;;;;;14.60;99.90;;;;;;4954410;28;20663;-72
2023/06/12 03:01:59;;;;;;;;;;;14.60;99.90;;;;;;4975976;28;19914;-72
2023/06/12 03:04:27;;;;;;;;;;;14.50;99.90;;;;;;4964213;28;19918;-71
2023/06/12 03:06:55;;;;;;;;;;;14.50;99.90;;;;;;4969431;28;19958;-72
2023/06/12 03:09:21;;;;;;;;;;;14.50;99.90;;;;;;4961181;28;19914;-72
2023/06/12 03:11:47;;;;;;;;;;;14.50;99.90;;;;;;4964908;28;19921;-72
2023/06/12 03:14:16;;;;;;;;;;;14.50;99.90;;;;;;4964654;28;19926;-72
2023/06/12 03:16:45;;;;;;;;;;;14.50;99.90;;;;;;4948950;28;19916;-72
2023/06/12 03:19:10;;;;;;;;;;;14.40;99.90;;;;;;4969868;28;20539;-72
2023/06/12 03:21:38;;;;;;;;;;;14.40;99.90;;;;;;4973121;28;19910;-71
2023/06/12 03:24:03;;;;;;;;;;;14.40;99.90;;;;;;4968571;28;19909;-71
2023/06/12 03:26:31;;;;;;;;;;;14.50;99.90;;;;;;4964352;28;19910;-72
2023/06/12 03:28:58;;;;;;;;;;;14.50;99.90;;;;;;4955382;28;19925;-73
2023/06/12 03:31:26;;;;;;;;;;;14.50;99.90;;;;;;4955301;28;19922;-71
2023/06/12 03:33:53;;;;;;;;;;;14.50;99.90;;;;;;4962474;28;19910;-71
2023/06/12 03:36:23;;;;;;;;;;;14.60;99.90;;;;;;4952378;28;19910;-72
2023/06/12 03:38:49;;;;;;;;;;;14.60;99.90;;;;;;4966794;28;19910;-71
2023/06/12 03:41:16;;;;;;;;;;;14.70;99.90;;;;;;4965663;28;20478;-71
2023/06/12 03:43:44;;;;;;;;;;;14.70;99.90;;;;;;4968976;28;19921;-72
2023/06/12 03:46:10;;;;;;;;;;;14.80;99.90;;;;;;4961175;28;19914;-71
2023/06/12 03:48:37;;;;;;;;;;;14.80;99.90;;;;;;4973531;28;19910;-72
2023/06/12 03:51:04;;;;;;;;;;;14.80;99.90;;;;;;4960127;28;19922;-72
2023/06/12 03:53:30;;;;;;;;;;;14.90;99.90;;;;;;4968900;28;20001;-72
2023/06/12 03:55:56;;;;;;;;;;;15.00;99.90;;;;;;4965108;28;20663;-71
2023/06/12 03:58:22;;;;;;;;;;;15.00;99.90;;;;;;4974847;28;19918;-72
2023/06/12 04:00:47;;;;;;;;;;;15.10;99.90;;;;;;4969916;28;19969;-72
2023/06/12 04:03:17;;;;;;;;;;;15.30;99.90;;;;;;4966951;28;19909;-72
2023/06/12 04:05:50;;;;;;;;;;;15.30;99.90;;;;;;4963491;28;19921;-72
2023/06/12 04:08:15;;;;;;;;;;;15.40;99.90;;;;;;4971935;28;19976;-74
2023/06/12 04:10:42;;;;;;;;;;;15.60;99.90;;;;;;4963157;28;20347;-73
2023/06/12 04:13:10;;;;;;;;;;;15.70;99.90;;;;;;4965744;28;20506;-74
2023/06/12 04:15:37;;;;;;;;;;;15.80;99.90;;;;;;4963431;28;19910;-74
2023/06/12 04:18:04;;;;;;;;;;;15.80;99.90;;;;;;4967648;28;19929;-73
2023/06/12 04:20:38;;;;;;;;;;;15.90;99.90;;;;;;4948796;28;19953;-73
2023/06/12 04:23:11;;;;;;;;;;;15.90;99.90;;;;;;4951517;28;19910;-72
2023/06/12 04:25:42;;;;;;;;;;;16.10;99.90;;;;;;4954352;28;19964;-72
2023/06/12 04:28:13;;;;;;;;;;;16.20;99.90;;;;;;4966462;28;20417;-73
2023/06/12 04:30:39;;;;;;;;;;;16.30;99.90;;;;;;4967685;28;19913;-73
2023/06/12 04:33:06;;;;;;;;;;;16.40;99.90;;;;;;4953196;28;19937;-73
2023/06/12 04:35:37;;;;;;;;;;;16.50;99.90;;;;;;4968292;28;20342;-73
2023/06/12 04:38:05;;;;;;;;;;;16.60;99.90;;;;;;4949749;28;20359;-73
2023/06/12 04:40:37;;;;;;;;;;;16.70;99.90;;;;;;4960941;28;20008;-73
2023/06/12 04:43:05;;;;;;;;;;;16.90;99.90;;;;;;4963851;28;20009;-72
2023/06/12 04:45:32;;;;;;;;;;;16.70;99.90;;;;;;4968209;28;19925;-74
2023/06/12 04:47:58;;;;;;;;;;;16.80;99.90;;;;;;4969666;28;20383;-73
2023/06/12 04:50:25;;;;;;;;;;;16.80;99.90;;;;;;4954333;28;19957;-73
2023/06/12 04:52:52;;;;;;;;;;;17.00;99.90;;;;;;4961229;28;19914;-73
2023/06/12 04:55:22;;;;;;;;;;;17.30;99.90;;;;;;4959480;28;20410;-73
2023/06/12 04:57:53;;;;;;;;;;;17.30;99.90;;;;;;4968133;28;20010;-73
2023/06/12 05:00:20;;;;;;;;;;;17.50;99.90;;;;;;4967648;28;19910;-73
2023/06/12 05:02:53;;;;;;;;;;;17.70;99.90;;;;;;4961412;28;19910;-73
2023/06/12 05:05:21;;;;;;;;;;;17.60;99.90;;;;;;4965397;28;19921;-73
2023/06/12 05:07:50;;;;;;;;;;;17.60;99.90;;;;;;4969310;28;19941;-73
2023/06/12 05:10:15;;;;;;;;;;;17.60;99.90;;;;;;4963120;28;20229;-73
2023/06/12 05:12:42;;;;;;;;;;;17.80;99.90;;;;;;4968571;28;19929;-72
2023/06/12 05:15:08;;;;;;;;;;;18.00;99.90;;;;;;4955543;28;20021;-70
2023/06/12 05:17:34;;;;;;;;;;;18.10;99.90;;;;;;4960896;28;19914;-71
2023/06/12 05:19:59;;;;;;;;;;;18.50;99.90;;;;;;4966066;28;20504;-66
2023/06/12 06:55:38;;;;;;;;;;;26.10;93.10;;;;;;5479460;23;19926;-89
2023/06/12 07:03:21;;;;;;;;;;;26.50;90.30;;;;;;5152678;23;20303;-88
2023/06/12 07:16:39;;;;;;;;;;;29.60;85.20;;;;;;4981337;28;19933;-90
2023/06/12 07:19:09;;;;;;;;;;;30.00;82.20;;;;;;4961487;28;19933;-90
2023/06/12 07:21:43;;;;;;;;;;;29.40;77.70;;;;;;4993024;28;19932;-87
2023/06/12 08:58:10;;;;;;;;;;;28.00;81.00;;;;;;4978669;28;19929;-92
2023/06/12 09:00:41;;;;;;;;;;;27.80;82.50;;;;;;4960356;28;19924;-92
2023/06/12 09:03:07;;;;;;;;;;;28.80;80.00;;;;;;4952427;28;19961;-91
2023/06/12 09:05:38;;;;;;;;;;;30.10;76.60;;;;;;4959162;28;19918;-92
2023/06/12 15:52:31;;;;;;;;;;;23.20;72.90;;;;;;4944528;28;19930;-78
2023/06/12 15:54:57;;;;;;;;;;;22.60;74.40;;;;;;4931292;29;19918;-78
2023/06/12 15:57:23;;;;;;;;;;;22.40;75.40;;;;;;4929783;28;20133;-78
2023/06/12 15:59:55;;;;;;;;;;;22.20;75.50;;;;;;4928617;28;19997;-79
2023/06/12 16:02:29;;;;;;;;;;;22.20;74.60;;;;;;4924309;29;19987;-78
2023/06/12 16:04:54;;;;;;;;;;;22.10;74.30;;;;;;4932486;29;20027;-79
2023/06/12 16:07:20;;;;;;;;;;;22.20;74.70;;;;;;4930715;29;20490;-71
2023/06/12 16:09:47;;;;;;;;;;;22.10;73.80;;;;;;4926732;29;20009;-75
2023/06/12 16:12:13;;;;;;;;;;;22.10;74.60;;;;;;4910622;29;19926;-75
2023/06/12 16:14:41;;;;;;;;;;;22.20;74.70;;;;;;4930955;29;19914;-75
2023/06/12 16:17:07;;;;;;;;;;;22.20;74.60;;;;;;4932919;29;19918;-75
2023/06/12 16:19:36;;;;;;;;;;;22.20;75.00;;;;;;4907259;29;19984;-75
2023/06/12 16:22:03;;;;;;;;;;;22.10;75.70;;;;;;4931006;29;20404;-75
2023/06/12 16:24:29;;;;;;;;;;;22.10;76.70;;;;;;4927313;29;19915;-75
2023/06/12 16:26:59;;;;;;;;;;;22.20;76.80;;;;;;4945644;28;19919;-75
2023/06/12 16:29:29;;;;;;;;;;;22.20;75.70;;;;;;4932502;29;20256;-75
2023/06/12 16:31:54;;;;;;;;;;;22.10;74.30;;;;;;4906493;29;19923;-75
2023/06/12 16:34:22;;;;;;;;;;;21.80;75.60;;;;;;4928508;29;19914;-75
2023/06/12 16:36:50;;;;;;;;;;;21.80;76.20;;;;;;4926181;29;20506;-75
2023/06/12 16:39:16;;;;;;;;;;;21.70;77.40;;;;;;4930838;29;19911;-75
2023/06/12 16:41:43;;;;;;;;;;;21.60;76.70;;;;;;4931691;29;19970;-76
2023/06/12 16:44:19;;;;;;;;;;;21.60;75.50;;;;;;4929816;29;19914;-75
2023/06/12 16:46:44;;;;;;;;;;;21.70;76.50;;;;;;4931426;29;19922;-76
2023/06/12 16:49:10;;;;;;;;;;;21.70;76.40;;;;;;4928018;29;19914;-75
2023/06/12 16:51:37;;;;;;;;;;;21.50;76.70;;;;;;4927275;29;19922;-77
2023/06/12 16:54:06;;;;;;;;;;;21.30;75.80;;;;;;4909485;29;19910;-76
2023/06/12 16:56:35;;;;;;;;;;;21.20;76.50;;;;;;4923590;29;20053;-77
2023/06/12 16:59:08;;;;;;;;;;;21.00;77.10;;;;;;4927344;29;19919;-77
2023/06/12 17:01:35;;;;;;;;;;;21.00;77.20;;;;;;4930442;29;19969;-76
2023/06/12 17:04:00;;;;;;;;;;;20.70;76.00;;;;;;4929628;29;20321;-77
2023/06/12 17:06:28;;;;;;;;;;;20.60;77.00;;;;;;4930372;29;20353;-75
2023/06/12 17:08:53;;;;;;;;;;;20.70;76.90;;;;;;4928476;29;19978;-75
2023/06/12 17:11:22;;;;;;;;;;;20.60;75.60;;;;;;4932751;29;20908;-76
2023/06/12 17:13:49;;;;;;;;;;;20.60;75.40;;;;;;4929852;29;19914;-72
2023/06/12 17:16:14;;;;;;;;;;;20.50;75.50;;;;;;4931030;29;19910;-72
2023/06/12 17:18:45;;;;;;;;;;;20.40;75.70;;;;;;4933423;29;19917;-71
2023/06/12 17:21:10;;;;;;;;;;;20.40;75.00;;;;;;4924151;29;19918;-72
2023/06/12 17:23:37;;;;;;;;;;;20.40;75.10;;;;;;4931429;29;19914;-72
2023/06/12 17:26:06;;;;;;;;;;;20.40;74.00;;;;;;4924748;29;20045;-76
2023/06/12 17:28:31;;;;;;;;;;;20.40;75.10;;;;;;4916638;29;19926;-76
2023/06/12 17:30:58;;;;;;;;;;;20.40;74.50;;;;;;4925594;29;19915;-75
2023/06/12 17:33:29;;;;;;;;;;;20.30;74.70;;;;;;4928771;29;20359;-75
2023/06/12 17:36:00;;;;;;;;;;;20.30;74.50;;;;;;4928916;29;19930;-75
2023/06/12 17:38:28;;;;;;;;;;;20.20;75.10;;;;;;4919765;29;19919;-75
2023/06/12 17:40:56;;;;;;;;;;;20.20;75.50;;;;;;4931615;29;19914;-74
2023/06/12 17:43:30;;;;;;;;;;;20.20;74.80;;;;;;4935016;29;19915;-80
2023/06/12 17:46:02;;;;;;;;;;;20.10;74.90;;;;;;4939788;29;19911;-75
2023/06/12 17:48:36;;;;;;;;;;;20.00;75.80;;;;;;4933656;29;19961;-76
2023/06/12 17:51:02;;;;;;;;;;;19.90;76.20;;;;;;4934508;29;20025;-76
2023/06/12 17:53:31;;;;;;;;;;;19.70;74.80;;;;;;4934982;28;19993;-76
2023/06/12 17:55:58;;;;;;;;;;;19.70;75.40;;;;;;4931775;29;20249;-76
2023/06/12 17:58:25;;;;;;;;;;;19.60;76.30;;;;;;4924895;29;19919;-75
2023/06/12 18:00:53;;;;;;;;;;;19.60;76.60;;;;;;4934613;29;19911;-75
2023/06/12 18:03:37;;;;;;;;;;;19.50;77.80;;;;;;4925445;29;19917;-74
2023/06/12 18:06:03;;;;;;;;;;;19.50;78.50;;;;;;4932402;28;19919;-76
2023/06/12 18:08:29;;;;;;;;;;;19.50;80.10;;;;;;4939684;29;20280;-75
2023/06/12 18:10:59;;;;;;;;;;;19.40;78.50;;;;;;4912203;29;19919;-75
2023/06/12 18:13:24;;;;;;;;;;;19.40;78.00;;;;;;4930291;29;20353;-76
2023/06/12 18:15:50;;;;;;;;;;;19.40;78.70;;;;;;4908478;29;19918;-77
2023/06/12 18:18:16;;;;;;;;;;;19.20;78.60;;;;;;4926060;29;20305;-75
2023/06/12 18:20:42;;;;;;;;;;;19.10;79.30;;;;;;4905349;29;19967;-75
2023/06/12 18:23:08;;;;;;;;;;;19.10;78.30;;;;;;4904425;29;19965;-75
2023/06/12 18:25:47;;;;;;;;;;;19.00;78.30;;;;;;4936228;29;19938;-74
2023/06/12 18:28:14;;;;;;;;;;;18.90;78.40;;;;;;4944473;28;19945;-75
2023/06/12 18:30:40;;;;;;;;;;;18.80;78.80;;;;;;4931943;29;19918;-74
2023/06/12 18:33:06;;;;;;;;;;;18.80;79.90;;;;;;4925965;29;19915;-76
2023/06/12 18:35:37;;;;;;;;;;;18.80;80.80;;;;;;4910357;29;20032;-75
2023/06/12 18:38:09;;;;;;;;;;;18.60;79.00;;;;;;4928772;29;21423;-75
2023/06/12 18:40:35;;;;;;;;;;;18.50;79.00;;;;;;4937718;29;19914;-75
2023/06/12 18:43:02;;;;;;;;;;;18.40;79.70;;;;;;4931268;29;19954;-75
2023/06/12 18:45:29;;;;;;;;;;;18.40;80.90;;;;;;4931839;29;19911;-75
2023/06/12 18:47:56;;;;;;;;;;;18.30;81.20;;;;;;4926196;29;20005;-75
2023/06/12 18:50:22;;;;;;;;;;;18.30;81.50;;;;;;4930445;29;20268;-76
2023/06/12 18:52:48;;;;;;;;;;;18.30;81.50;;;;;;4909343;29;19925;-75
2023/06/12 18:55:18;;;;;;;;;;;18.30;81.00;;;;;;4905737;29;19962;-74
2023/06/12 18:57:58;;;;;;;;;;;18.30;81.50;;;;;;4933319;29;19911;-75
2023/06/12 19:00:29;;;;;;;;;;;18.20;81.70;;;;;;4934376;29;20634;-74
2023/06/12 19:03:00;;;;;;;;;;;18.10;81.80;;;;;;4929195;29;19914;-75
2023/06/12 19:05:29;;;;;;;;;;;18.10;82.50;;;;;;4936319;29;19911;-75
2023/06/12 19:07:59;;;;;;;;;;;18.00;82.10;;;;;;4927631;28;19958;-75
2023/06/12 19:10:25;;;;;;;;;;;18.00;81.50;;;;;;4940315;29;19998;-75
2023/06/12 19:12:51;;;;;;;;;;;18.10;83.40;;;;;;4904515;29;20651;-75
2023/06/12 19:15:22;;;;;;;;;;;18.00;81.60;;;;;;4907795;29;19918;-75
2023/06/12 19:17:53;;;;;;;;;;;18.00;82.10;;;;;;4928255;29;19921;-75
2023/06/12 19:20:22;;;;;;;;;;;18.00;80.90;;;;;;4932565;29;19910;-75
2023/06/12 19:22:47;;;;;;;;;;;17.90;80.10;;;;;;4926947;29;19911;-75
2023/06/12 19:25:19;;;;;;;;;;;17.90;80.50;;;;;;4929502;29;20276;-75
2023/06/12 19:27:45;;;;;;;;;;;17.80;81.30;;;;;;4928528;29;19925;-75
2023/06/12 19:30:20;;;;;;;;;;;17.80;81.40;;;;;;4929415;29;19922;-75
2023/06/12 19:32:50;;;;;;;;;;;17.80;81.10;;;;;;4929540;29;19914;-75
2023/06/12 19:35:23;;;;;;;;;;;17.70;80.60;;;;;;4928223;29;20348;-75
2023/06/12 19:38:07;;;;;;;;;;;17.70;81.50;;;;;;4930245;29;19910;-75
2023/06/12 19:40:32;;;;;;;;;;;17.60;81.10;;;;;;4931220;29;19919;-76
2023/06/12 19:42:58;;;;;;;;;;;17.60;83.30;;;;;;4928826;28;20423;-75
2023/06/12 19:45:31;;;;;;;;;;;17.50;80.50;;;;;;4929388;29;19921;-76
2023/06/12 19:48:04;;;;;;;;;;;17.50;80.80;;;;;;4931422;29;20021;-75
2023/06/12 19:50:32;;;;;;;;;;;17.50;80.30;;;;;;4935351;29;19911;-75
2023/06/12 19:52:59;;;;;;;;;;;17.40;81.30;;;;;;4929883;29;19922;-75
2023/06/12 19:55:29;;;;;;;;;;;17.30;81.50;;;;;;4926295;29;20482;-75
2023/06/12 19:57:58;;;;;;;;;;;17.30;81.90;;;;;;4914077;29;19998;-75
2023/06/12 20:00:26;;;;;;;;;;;17.30;81.80;;;;;;4931577;29;20033;-75
2023/06/12 20:02:54;;;;;;;;;;;17.20;82.00;;;;;;4932189;29;19989;-75
2023/06/12 20:05:20;;;;;;;;;;;17.20;81.80;;;;;;4904558;28;19922;-72
2023/06/12 20:07:49;;;;;;;;;;;17.20;82.40;;;;;;4906564;29;19911;-73
2023/06/12 20:10:16;;;;;;;;;;;17.10;82.20;;;;;;4928670;29;19956;-73
2023/06/12 20:12:43;;;;;;;;;;;17.00;82.20;;;;;;4925466;29;19922;-73
2023/06/12 20:15:16;;;;;;;;;;;17.00;82.30;;;;;;4931168;29;19961;-73
2023/06/12 20:17:46;;;;;;;;;;;17.00;82.00;;;;;;4905186;29;19962;-73
2023/06/12 20:20:13;;;;;;;;;;;17.00;82.10;;;;;;4933199;29;19910;-73
2023/06/12 20:22:41;;;;;;;;;;;17.00;82.00;;;;;;4918980;29;19915;-73
2023/06/12 20:25:07;;;;;;;;;;;17.00;82.20;;;;;;4926366;29;19921;-72
2023/06/12 20:27:34;;;;;;;;;;;16.90;82.10;;;;;;4934820;28;19972;-72
2023/06/12 20:30:00;;;;;;;;;;;16.90;82.60;;;;;;4926514;29;20436;-72
2023/06/12 20:32:29;;;;;;;;;;;16.90;82.00;;;;;;4930731;28;19921;-72
2023/06/12 20:34:57;;;;;;;;;;;16.90;81.30;;;;;;4930221;29;19919;-72
2023/06/12 20:37:23;;;;;;;;;;;16.90;81.90;;;;;;4926855;28;19945;-73
2023/06/12 20:39:49;;;;;;;;;;;16.80;82.40;;;;;;4927914;29;19918;-73
2023/06/12 20:42:16;;;;;;;;;;;16.80;82.20;;;;;;4933824;29;20284;-73
2023/06/12 20:44:44;;;;;;;;;;;16.70;82.30;;;;;;4926873;29;19915;-73
2023/06/12 20:47:12;;;;;;;;;;;16.70;81.90;;;;;;4930547;29;20348;-72
2023/06/12 20:49:40;;;;;;;;;;;16.70;81.40;;;;;;4925426;29;19953;-73
2023/06/12 20:52:09;;;;;;;;;;;16.70;81.80;;;;;;4929652;28;19965;-73
2023/06/12 20:54:34;;;;;;;;;;;16.70;81.90;;;;;;4928750;29;20248;-73
2023/06/12 20:57:00;;;;;;;;;;;16.60;82.10;;;;;;4906912;29;19910;-73
2023/06/12 20:59:27;;;;;;;;;;;16.60;82.70;;;;;;4932132;29;20305;-73
2023/06/12 21:01:53;;;;;;;;;;;16.50;82.10;;;;;;4933238;29;19922;-72
2023/06/12 21:04:19;;;;;;;;;;;16.50;82.10;;;;;;4933164;29;20031;-73
2023/06/12 21:06:52;;;;;;;;;;;16.50;82.30;;;;;;4929758;29;19914;-73
2023/06/12 21:09:19;;;;;;;;;;;16.50;82.20;;;;;;4905382;29;19994;-73
2023/06/12 21:11:45;;;;;;;;;;;16.40;82.20;;;;;;4930420;29;20522;-73
2023/06/12 21:14:17;;;;;;;;;;;16.40;82.60;;;;;;4932020;29;19914;-73
2023/06/12 21:16:43;;;;;;;;;;;16.40;82.20;;;;;;4926510;29;19910;-73
2023/06/12 21:19:12;;;;;;;;;;;16.30;83.20;;;;;;4933854;29;19973;-72
2023/06/12 21:21:39;;;;;;;;;;;16.30;82.50;;;;;;4928112;29;19910;-72
2023/06/12 21:24:07;;;;;;;;;;;16.30;82.90;;;;;;4930379;29;19914;-73
2023/06/12 21:26:33;;;;;;;;;;;16.20;83.10;;;;;;4936895;29;19925;-71
2023/06/12 21:29:01;;;;;;;;;;;16.20;83.10;;;;;;4931619;29;20037;-73
2023/06/12 21:31:29;;;;;;;;;;;16.10;84.50;;;;;;4935279;29;19923;-73
2023/06/12 21:33:55;;;;;;;;;;;16.10;84.40;;;;;;4935362;29;19984;-73
2023/06/12 21:36:21;;;;;;;;;;;16.00;84.00;;;;;;4930396;29;20371;-72
2023/06/12 21:38:48;;;;;;;;;;;16.00;84.70;;;;;;4934509;29;19917;-73
2023/06/12 21:41:15;;;;;;;;;;;15.90;85.10;;;;;;4934585;29;19914;-73
2023/06/12 21:43:42;;;;;;;;;;;15.90;85.50;;;;;;4935912;29;19918;-73
2023/06/12 21:46:10;;;;;;;;;;;15.90;85.20;;;;;;4932354;29;19942;-73
2023/06/12 21:48:36;;;;;;;;;;;15.90;86.20;;;;;;4937396;29;19920;-73
2023/06/12 21:51:01;;;;;;;;;;;15.80;86.40;;;;;;4937956;29;19923;-75
2023/06/12 21:53:27;;;;;;;;;;;15.70;86.60;;;;;;4937356;29;19933;-73
2023/06/12 21:55:54;;;;;;;;;;;15.60;87.20;;;;;;4924882;28;19958;-73
2023/06/12 21:58:24;;;;;;;;;;;15.60;87.10;;;;;;4934031;29;19915;-72
2023/06/12 22:00:52;;;;;;;;;;;15.60;86.70;;;;;;4932456;29;19911;-72
2023/06/12 22:03:18;;;;;;;;;;;15.60;87.80;;;;;;4933895;29;19918;-73
2023/06/12 22:05:44;;;;;;;;;;;15.60;88.50;;;;;;4927746;29;19911;-73
2023/06/12 22:08:15;;;;;;;;;;;15.50;88.30;;;;;;4930938;28;20244;-73
2023/06/12 22:10:41;;;;;;;;;;;15.50;89.00;;;;;;4935828;29;19920;-73
2023/06/12 22:13:09;;;;;;;;;;;15.40;88.60;;;;;;4930728;29;19977;-73
2023/06/12 22:15:36;;;;;;;;;;;15.40;89.10;;;;;;4936026;29;19938;-72
2023/06/12 22:18:07;;;;;;;;;;;15.30;90.10;;;;;;4934968;29;19919;-72
2023/06/12 22:20:34;;;;;;;;;;;15.20;90.10;;;;;;4935796;29;19978;-74
2023/06/12 22:23:00;;;;;;;;;;;15.20;90.00;;;;;;4934760;29;19915;-73
2023/06/12 22:25:25;;;;;;;;;;;15.10;89.80;;;;;;4930569;29;19911;-73
2023/06/12 22:27:52;;;;;;;;;;;15.20;90.10;;;;;;4911912;29;20033;-72
2023/06/12 22:30:18;;;;;;;;;;;15.10;90.70;;;;;;4931446;28;20341;-72
2023/06/12 22:32:43;;;;;;;;;;;15.00;91.30;;;;;;4928032;29;19926;-73
2023/06/12 22:35:12;;;;;;;;;;;15.00;91.60;;;;;;4934998;29;19910;-73
2023/06/12 22:37:40;;;;;;;;;;;15.00;91.00;;;;;;4921165;29;19918;-73
2023/06/12 22:40:07;;;;;;;;;;;15.00;90.80;;;;;;4910013;29;20435;-73
2023/06/12 22:42:33;;;;;;;;;;;15.00;91.10;;;;;;4935973;29;20291;-72
2023/06/12 22:44:59;;;;;;;;;;;14.90;91.50;;;;;;4934999;29;19915;-72
2023/06/12 22:47:27;;;;;;;;;;;14.90;91.90;;;;;;4909265;29;20323;-73
2023/06/12 22:49:55;;;;;;;;;;;14.80;92.20;;;;;;4935211;29;19919;-72
2023/06/12 22:52:21;;;;;;;;;;;14.80;92.70;;;;;;4923972;29;20535;-72
2023/06/12 22:54:47;;;;;;;;;;;14.80;93.00;;;;;;4933849;29;19958;-72
2023/06/12 22:57:12;;;;;;;;;;;14.70;93.10;;;;;;4936547;29;20366;-72
2023/06/12 22:59:39;;;;;;;;;;;14.60;93.40;;;;;;4934452;29;19918;-73
2023/06/12 23:02:05;;;;;;;;;;;14.60;93.80;;;;;;4934402;29;19915;-73
2023/06/12 23:04:33;;;;;;;;;;;14.50;93.70;;;;;;4935692;29;19921;-73
2023/06/12 23:07:05;;;;;;;;;;;14.50;94.00;;;;;;4934246;29;19957;-73
2023/06/12 23:09:33;;;;;;;;;;;14.50;93.50;;;;;;4929508;29;20061;-73
2023/06/12 23:12:02;;;;;;;;;;;14.40;94.20;;;;;;4938029;28;19918;-73
2023/06/12 23:14:30;;;;;;;;;;;14.40;94.80;;;;;;4935411;29;19921;-73
2023/06/12 23:17:01;;;;;;;;;;;14.40;95.00;;;;;;4932488;29;19918;-73
2023/06/12 23:19:31;;;;;;;;;;;14.30;95.20;;;;;;4936009;29;19915;-73
2023/06/12 23:22:00;;;;;;;;;;;14.30;94.60;;;;;;4934240;29;19914;-72
2023/06/12 23:24:28;;;;;;;;;;;14.30;95.40;;;;;;4935304;29;19911;-73
2023/06/12 23:26:56;;;;;;;;;;;14.30;95.40;;;;;;4927267;29;19923;-73
2023/06/12 23:29:23;;;;;;;;;;;14.20;96.00;;;;;;4934553;29;20129;-73
2023/06/12 23:31:49;;;;;;;;;;;14.20;95.40;;;;;;4931295;29;20418;-72
2023/06/12 23:34:15;;;;;;;;;;;14.10;96.10;;;;;;4933194;29;19993;-72
2023/06/12 23:36:46;;;;;;;;;;;14.10;96.20;;;;;;4931164;28;19986;-73
2023/06/12 23:39:18;;;;;;;;;;;14.10;97.00;;;;;;4932990;29;20452;-73
2023/06/12 23:41:52;;;;;;;;;;;14.10;96.00;;;;;;4930883;28;19914;-73
2023/06/12 23:44:18;;;;;;;;;;;14.00;96.90;;;;;;4932711;28;19978;-73
2023/06/12 23:46:48;;;;;;;;;;;14.00;97.40;;;;;;4931927;29;19922;-72
2023/06/12 23:49:14;;;;;;;;;;;14.00;97.50;;;;;;4929028;29;19911;-72
2023/06/12 23:51:39;;;;;;;;;;;14.00;96.70;;;;;;4932929;29;19933;-73
2023/06/12 23:54:07;;;;;;;;;;;14.00;97.30;;;;;;4920833;29;19965;-73
2023/06/12 23:56:33;;;;;;;;;;;13.90;97.10;;;;;;4931022;28;19919;-73
2023/06/12 23:59:00;;;;;;;;;;;14.00;97.20;;;;;;4922260;29;20416;-72
